createdAt,value
2023-01-18T00:01:09.547Z,33.08
2023-01-18T00:03:38.199Z,40.22
2023-01-18T00:06:07.216Z,34.42
2023-01-18T00:08:35.832Z,38.63
2023-01-18T00:11:04.476Z,28.02
2023-01-18T00:13:31.267Z,50.38
2023-01-18T00:16:06.100Z,37.80
2023-01-18T00:18:33.069Z,29.85
2023-01-18T00:21:04.602Z,37.03
2023-01-18T00:23:31.468Z,33.72
2023-01-18T00:26:06.270Z,41.15
2023-01-18T00:28:33.376Z,33.53
2023-01-18T00:30:59.829Z,30.77
2023-01-18T00:36:02.888Z,33.05
2023-01-18T00:38:30.127Z,32.30
2023-01-18T00:40:57.240Z,36.00
2023-01-18T00:43:38.929Z,34.67
2023-01-18T00:46:06.337Z,34.63
2023-01-18T00:48:33.271Z,43.05
2023-01-18T00:51:00.092Z,37.75
2023-01-18T00:53:26.901Z,33.72
2023-01-18T00:55:53.324Z,40.05
2023-01-18T00:58:19.701Z,41.33
2023-01-18T01:00:48.007Z,33.90
2023-01-18T01:03:15.164Z,38.58
2023-01-18T01:06:00.209Z,30.40
2023-01-18T01:08:26.767Z,38.15
2023-01-18T01:13:48.133Z,29.85
2023-01-18T01:16:34.050Z,33.03
2023-01-18T01:19:19.225Z,33.88
2023-01-18T01:22:04.068Z,32.60
2023-01-18T01:24:48.914Z,33.38
2023-01-18T01:27:15.392Z,30.58
2023-01-18T01:32:08.483Z,39.20
2023-01-18T01:34:35.922Z,37.15
2023-01-18T01:37:03.434Z,30.02
2023-01-18T01:39:30.548Z,31.50
2023-01-18T01:41:57.556Z,33.78
2023-01-18T01:44:24.523Z,33.17
2023-01-18T01:46:53.679Z,31.95
2023-01-18T01:49:32.864Z,30.70
2023-01-18T01:52:04.254Z,31.10
2023-01-18T01:54:37.435Z,31.50
2023-01-18T01:57:10.973Z,28.45
2023-01-18T01:59:41.988Z,33.47
2023-01-18T02:02:09.701Z,35.90
2023-01-18T02:04:36.779Z,23.90
2023-01-18T02:07:03.306Z,28.23
2023-01-18T02:11:56.611Z,26.17
2023-01-18T02:14:26.573Z,33.95
2023-01-18T02:17:11.687Z,25.30
2023-01-18T02:20:19.944Z,25.70
2023-01-18T02:23:24.037Z,27.60
2023-01-18T02:26:28.343Z,28.02
2023-01-18T02:29:05.307Z,27.48
2023-01-18T02:31:40.157Z,25.58
2023-01-18T02:34:18.034Z,27.20
2023-01-18T02:37:03.778Z,25.52
2023-01-18T02:39:42.655Z,30.92
2023-01-18T02:42:39.936Z,23.80
2023-01-18T02:45:38.495Z,33.08
2023-01-18T02:48:07.657Z,32.10
2023-01-18T02:50:34.586Z,26.13
2023-01-18T02:53:00.994Z,27.65
2023-01-18T02:55:36.421Z,32.28
2023-01-18T02:58:09.778Z,26.45
2023-01-18T03:00:41.095Z,29.63
2023-01-18T03:03:11.241Z,29.23
2023-01-18T03:05:39.806Z,27.83
2023-01-18T03:08:16.602Z,28.23
2023-01-18T03:10:57.699Z,23.23
2023-01-18T03:14:05.422Z,29.00
2023-01-18T03:16:58.532Z,28.23
2023-01-18T03:19:57.140Z,25.42
2023-01-18T03:22:46.478Z,24.42
2023-01-18T03:25:19.023Z,28.60
2023-01-18T03:28:06.692Z,24.25
2023-01-18T03:30:53.251Z,29.92
2023-01-18T03:33:42.891Z,23.58
2023-01-18T03:36:16.517Z,23.27
2023-01-18T03:38:46.367Z,32.40
2023-01-18T03:41:14.207Z,25.50
2023-01-18T03:43:42.180Z,26.23
2023-01-18T03:46:08.917Z,26.15
2023-01-18T03:48:36.618Z,23.60
2023-01-18T03:51:26.341Z,25.98
2023-01-18T03:54:15.348Z,20.70
2023-01-18T03:56:53.887Z,27.02
2023-01-18T03:59:21.609Z,28.73
2023-01-18T04:01:49.046Z,26.95
2023-01-18T04:04:15.499Z,21.35
2023-01-18T04:09:08.914Z,24.90
2023-01-18T04:11:35.397Z,23.25
2023-01-18T04:16:28.253Z,24.17
2023-01-18T04:21:21.075Z,31.40
2023-01-18T04:26:16.656Z,22.88
2023-01-18T04:28:43.243Z,23.27
2023-01-18T04:33:36.423Z,27.27
2023-01-18T04:38:29.378Z,25.42
2023-01-18T04:43:29.639Z,27.48
2023-01-18T04:45:56.811Z,23.73
2023-01-18T04:48:24.377Z,22.38
2023-01-18T04:50:51.521Z,23.33
2023-01-18T04:53:18.325Z,27.27
2023-01-18T04:55:45.626Z,22.50
2023-01-18T04:58:12.240Z,20.65
2023-01-18T05:00:39.938Z,23.85
2023-01-18T05:03:08.064Z,23.80
2023-01-18T05:05:34.605Z,22.25
2023-01-18T05:10:27.821Z,18.45
2023-01-18T05:12:54.272Z,26.77
2023-01-18T05:15:20.773Z,23.85
2023-01-18T05:20:13.850Z,30.08
2023-01-18T05:22:40.327Z,23.63
2023-01-18T05:27:33.851Z,19.95
2023-01-18T05:30:01.803Z,20.45
2023-01-18T05:32:28.304Z,23.60
2023-01-18T05:37:21.129Z,21.63
2023-01-18T05:39:47.541Z,18.20
2023-01-18T05:44:40.921Z,23.85
2023-01-18T05:47:07.380Z,18.73
2023-01-18T05:49:33.811Z,19.20
2023-01-18T05:52:00.319Z,25.23
2023-01-18T05:56:53.130Z,19.65
2023-01-18T06:01:45.979Z,20.35
2023-01-18T06:06:38.837Z,21.73
2023-01-18T06:09:05.278Z,17.48
2023-01-18T06:13:58.046Z,16.67
2023-01-18T06:16:27.070Z,19.90
2023-01-18T06:18:53.655Z,18.10
2023-01-18T06:23:46.437Z,20.58
2023-01-18T06:26:12.940Z,16.45
2023-01-18T06:31:08.218Z,21.35
2023-01-18T06:33:34.950Z,18.83
2023-01-18T06:36:01.601Z,16.65
2023-01-18T06:38:29.782Z,15.70
2023-01-18T06:40:56.323Z,19.48
2023-01-18T06:45:56.339Z,17.37
2023-01-18T06:48:26.604Z,15.68
2023-01-18T06:50:56.011Z,13.82
2023-01-18T06:53:22.658Z,12.25
2023-01-18T06:55:57.093Z,14.25
2023-01-18T06:58:25.889Z,16.83
2023-01-18T07:01:00.150Z,17.48
2023-01-18T07:03:28.828Z,15.75
2023-01-18T07:05:56.657Z,21.15
2023-01-18T07:08:23.950Z,15.88
2023-01-18T07:10:52.839Z,14.18
2023-01-18T07:13:20.070Z,17.83
2023-01-18T07:15:54.278Z,20.90
2023-01-18T07:18:20.750Z,14.65
2023-01-18T07:20:47.561Z,14.43
2023-01-18T07:23:17.050Z,16.52
2023-01-18T07:25:43.497Z,14.35
2023-01-18T07:28:10.040Z,13.10
2023-01-18T07:30:39.485Z,15.77
2023-01-18T07:33:08.000Z,19.63
2023-01-18T07:35:37.139Z,14.70
2023-01-18T07:38:04.171Z,14.18
2023-01-18T07:40:31.088Z,21.92
2023-01-18T07:43:04.827Z,20.80
2023-01-18T07:45:34.167Z,21.15
2023-01-18T07:48:02.864Z,25.08
2023-01-18T07:50:33.954Z,17.00
2023-01-18T07:53:06.728Z,19.50
2023-01-18T07:55:33.941Z,18.60
2023-01-18T07:58:03.218Z,16.23
2023-01-18T08:00:35.034Z,18.13
2023-01-18T08:03:12.719Z,17.10
2023-01-18T08:05:39.757Z,16.70
2023-01-18T08:08:11.435Z,13.88
2023-01-18T08:10:38.663Z,16.80
2023-01-18T08:13:09.146Z,20.40
2023-01-18T08:15:39.339Z,17.00
2023-01-18T08:18:07.478Z,26.95
2023-01-18T08:20:34.373Z,18.23
2023-01-18T08:23:01.762Z,12.93
2023-01-18T08:25:30.256Z,18.33
2023-01-18T08:31:22.306Z,20.35
2023-01-18T08:34:00.863Z,20.10
2023-01-18T08:43:37.258Z,17.70
2023-01-18T08:46:22.323Z,16.75
2023-01-18T08:49:49.670Z,16.70
2023-01-18T08:52:16.463Z,18.58
2023-01-18T08:54:43.248Z,11.30
2023-01-18T08:57:11.027Z,14.25
2023-01-18T08:59:37.577Z,16.90
2023-01-18T09:04:30.733Z,15.27
2023-01-18T09:09:23.902Z,13.70
2023-01-18T09:11:51.873Z,10.68
2023-01-18T09:14:19.068Z,18.35
2023-01-18T09:16:45.631Z,11.32
2023-01-18T09:21:41.106Z,16.73
2023-01-18T09:24:08.030Z,19.80
2023-01-18T09:26:34.566Z,10.80
2023-01-18T09:31:40.702Z,11.85
2023-01-18T09:34:18.967Z,16.77
2023-01-18T09:36:49.286Z,18.08
2023-01-18T09:39:16.038Z,13.95
2023-01-18T09:41:47.098Z,22.05
2023-01-18T09:44:28.862Z,15.63
2023-01-18T09:47:03.179Z,12.63
2023-01-18T09:49:52.157Z,18.35
2023-01-18T09:52:34.261Z,13.85
2023-01-18T09:55:41.887Z,11.63
2023-01-18T09:58:19.260Z,14.43
2023-01-18T10:01:07.610Z,16.38
2023-01-18T10:06:55.376Z,11.50
2023-01-18T10:09:30.080Z,14.13
2023-01-18T10:11:56.512Z,12.00
2023-01-18T10:14:48.949Z,19.60
2023-01-18T10:17:21.429Z,17.65
2023-01-18T10:19:48.336Z,13.10
2023-01-18T10:22:31.994Z,13.57
2023-01-18T10:25:10.207Z,10.60
2023-01-18T10:28:28.381Z,10.23
2023-01-18T10:34:52.083Z,14.00
2023-01-18T10:37:38.947Z,12.40
2023-01-18T10:40:09.531Z,17.37
2023-01-18T10:42:48.158Z,15.15
2023-01-18T10:45:22.742Z,14.50
2023-01-18T10:47:51.519Z,16.35
2023-01-18T10:50:42.372Z,17.95
2023-01-18T10:53:23.867Z,7.70
2023-01-18T10:56:04.989Z,18.08
2023-01-18T10:59:11.277Z,11.07
2023-01-18T11:08:40.972Z,14.70
2023-01-18T11:11:56.189Z,7.90
2023-01-18T11:14:39.797Z,11.57
2023-01-18T11:17:11.765Z,18.42
2023-01-18T11:19:41.922Z,13.30
2023-01-18T11:22:13.427Z,18.23
2023-01-18T11:24:40.481Z,15.30
2023-01-18T11:27:26.048Z,13.25
2023-01-18T11:29:56.155Z,14.70
2023-01-18T11:32:29.276Z,7.78
2023-01-18T11:35:02.836Z,15.38
2023-01-18T11:37:36.656Z,26.55
2023-01-18T11:40:41.818Z,25.10
2023-01-18T11:43:20.520Z,20.25
2023-01-18T11:46:28.134Z,20.80
2023-01-18T11:49:23.936Z,9.27
2023-01-18T11:52:42.223Z,16.17
2023-01-18T11:55:23.985Z,13.50
2023-01-18T11:57:55.368Z,20.10
2023-01-18T12:00:28.079Z,14.32
2023-01-18T12:03:05.686Z,12.73
2023-01-18T12:05:45.990Z,20.23
2023-01-18T12:08:27.166Z,12.00
2023-01-18T12:11:05.994Z,23.95
2023-01-18T12:13:55.225Z,13.63
2023-01-18T12:16:30.900Z,18.48
2023-01-18T12:19:30.085Z,19.77
2023-01-18T12:22:34.602Z,12.95
2023-01-18T12:25:18.591Z,17.40
2023-01-18T12:28:22.459Z,23.70
2023-01-18T12:31:23.513Z,20.25
2023-01-18T12:34:12.776Z,23.45
2023-01-18T12:37:02.841Z,15.65
2023-01-18T12:40:14.456Z,25.55
2023-01-18T12:42:55.563Z,19.05
2023-01-18T12:45:44.127Z,16.42
2023-01-18T12:48:13.790Z,18.40
2023-01-18T12:50:43.597Z,22.02
2023-01-18T12:53:37.786Z,15.30
2023-01-18T12:56:16.899Z,18.75
2023-01-18T12:58:44.241Z,14.02
2023-01-18T13:01:16.562Z,12.82
2023-01-18T13:03:47.281Z,15.48
2023-01-18T13:06:18.603Z,14.40
2023-01-18T13:08:52.852Z,14.15
2023-01-18T13:11:30.141Z,20.23
2023-01-18T13:14:11.557Z,17.42
2023-01-18T13:16:47.831Z,21.42
2023-01-18T13:19:24.934Z,22.90
2023-01-18T13:24:42.739Z,18.33
2023-01-18T13:27:12.551Z,17.88
2023-01-18T13:29:40.707Z,20.88
2023-01-18T13:32:38.011Z,18.00
2023-01-18T13:35:20.446Z,19.35
2023-01-18T13:38:01.420Z,28.45
2023-01-18T13:40:43.026Z,19.02
2023-01-18T13:43:36.100Z,21.95
2023-01-18T13:46:09.010Z,22.88
2023-01-18T13:48:45.352Z,22.92
2023-01-18T13:51:43.039Z,23.33
2023-01-18T13:54:18.673Z,17.88
2023-01-18T13:57:16.828Z,18.17
2023-01-18T13:59:52.314Z,24.17
2023-01-18T14:02:25.581Z,25.08
2023-01-18T14:05:28.244Z,24.70
2023-01-18T14:07:57.965Z,25.85
2023-01-18T14:10:27.937Z,15.50
2023-01-18T14:12:57.170Z,17.52
2023-01-18T14:15:49.196Z,19.40
2023-01-18T14:18:28.486Z,17.42
2023-01-18T14:21:15.269Z,23.73
2023-01-18T14:24:06.740Z,19.60
2023-01-18T14:26:37.788Z,20.70
2023-01-18T14:29:14.387Z,14.23
2023-01-18T14:31:52.247Z,19.00
2023-01-18T14:34:43.804Z,16.60
2023-01-18T14:37:28.936Z,18.42
2023-01-18T14:40:17.885Z,15.63
2023-01-18T14:42:49.529Z,18.63
2023-01-18T14:45:24.331Z,22.30
2023-01-18T14:47:53.871Z,20.50
2023-01-18T14:50:24.911Z,16.95
2023-01-18T14:52:58.065Z,20.10
2023-01-18T14:55:34.571Z,18.98
2023-01-18T14:58:11.829Z,16.93
2023-01-18T15:04:39.073Z,17.08
2023-01-18T15:07:13.977Z,16.85
2023-01-18T15:09:45.859Z,21.42
2023-01-18T15:12:16.948Z,22.20
2023-01-18T15:14:47.400Z,20.40
2023-01-18T15:17:26.594Z,23.08
2023-01-18T15:19:58.049Z,26.98
2023-01-18T15:22:31.135Z,22.35
2023-01-18T15:24:59.514Z,22.88
2023-01-18T15:27:31.710Z,23.08
2023-01-18T15:30:00.410Z,19.58
2023-01-18T15:32:29.948Z,23.55
2023-01-18T15:34:58.235Z,28.27
2023-01-18T15:37:27.683Z,21.67
2023-01-18T15:39:57.775Z,30.15
2023-01-18T15:42:46.959Z,24.85
2023-01-18T15:45:40.441Z,20.13
2023-01-18T15:48:22.674Z,28.38
2023-01-18T15:50:58.319Z,25.73
2023-01-18T15:53:35.689Z,19.58
2023-01-18T15:56:15.451Z,25.35
2023-01-18T15:58:47.788Z,28.05
2023-01-18T16:01:16.001Z,25.83
2023-01-18T16:03:48.462Z,19.65
2023-01-18T16:06:18.896Z,22.33
2023-01-18T16:09:11.834Z,22.55
2023-01-18T16:11:39.742Z,23.08
2023-01-18T16:14:22.389Z,19.88
2023-01-18T16:16:49.487Z,21.45
2023-01-18T16:19:16.006Z,20.85
2023-01-18T16:22:04.934Z,22.92
2023-01-18T16:24:45.461Z,27.55
2023-01-18T16:27:19.037Z,18.13
2023-01-18T16:29:52.343Z,23.55
2023-01-18T16:32:21.829Z,22.75
2023-01-18T16:34:48.780Z,32.33
2023-01-18T16:37:15.328Z,26.58
2023-01-18T16:42:12.100Z,29.63
2023-01-18T16:44:41.756Z,33.17
2023-01-18T16:47:11.819Z,41.20
2023-01-18T16:49:41.679Z,64.57
2023-01-18T16:52:13.131Z,48.17
2023-01-18T16:54:41.990Z,59.15
2023-01-18T16:57:17.907Z,46.20
2023-01-18T16:59:44.543Z,42.25
2023-01-18T17:04:38.108Z,37.63
2023-01-18T17:07:06.721Z,33.30
2023-01-18T17:09:47.820Z,36.88
2023-01-18T17:12:15.695Z,32.58
2023-01-18T17:14:42.295Z,34.60
2023-01-18T17:19:37.775Z,31.00
2023-01-18T17:22:04.435Z,30.83
2023-01-18T17:28:05.155Z,29.08
2023-01-18T17:30:32.941Z,29.13
2023-01-18T17:32:59.922Z,31.17
2023-01-18T17:35:28.534Z,26.02
2023-01-18T17:38:11.394Z,30.10
2023-01-18T17:40:44.009Z,30.70
2023-01-18T17:43:28.565Z,32.65
2023-01-18T17:46:02.273Z,25.27
2023-01-18T17:48:29.314Z,32.50
2023-01-18T17:50:55.905Z,27.35
2023-01-18T17:55:48.749Z,23.98
2023-01-18T18:00:42.016Z,28.77
2023-01-18T18:03:09.305Z,39.63
2023-01-18T18:05:35.983Z,24.90
2023-01-18T18:10:28.927Z,28.50
2023-01-18T18:12:57.174Z,26.45
2023-01-18T18:15:23.885Z,28.67
2023-01-18T18:17:51.031Z,26.85
2023-01-18T18:20:17.854Z,23.35
2023-01-18T18:22:44.607Z,27.73
2023-01-18T18:25:11.414Z,24.92
2023-01-18T18:27:45.344Z,25.42
2023-01-18T18:30:12.991Z,26.48
2023-01-18T18:32:39.896Z,27.92
2023-01-18T18:35:19.460Z,32.20
2023-01-18T18:37:51.660Z,36.78
2023-01-18T18:40:19.577Z,33.75
2023-01-18T18:42:56.486Z,31.38
2023-01-18T18:45:28.391Z,27.45
2023-01-18T18:47:55.196Z,31.85
2023-01-18T18:50:22.003Z,33.53
2023-01-18T18:52:48.825Z,32.47
2023-01-18T18:55:15.637Z,23.02
2023-01-18T18:57:42.201Z,30.80
2023-01-18T19:02:47.619Z,28.88
2023-01-18T19:05:15.605Z,31.05
2023-01-18T19:07:48.102Z,38.65
2023-01-18T19:10:15.470Z,30.08
2023-01-18T19:12:44.940Z,32.35
2023-01-18T19:15:16.910Z,30.20
2023-01-18T19:17:43.672Z,32.47
2023-01-18T19:20:13.970Z,27.25
2023-01-18T19:22:40.733Z,39.30
2023-01-18T19:25:11.058Z,32.55
2023-01-18T19:27:37.981Z,32.00
2023-01-18T19:30:15.476Z,27.77
2023-01-18T19:32:55.755Z,32.75
2023-01-18T19:35:30.599Z,38.88
2023-01-18T19:38:01.120Z,41.35
2023-01-18T19:40:30.593Z,38.47
2023-01-18T19:43:00.910Z,38.28
2023-01-18T19:46:15.727Z,44.55
2023-01-18T19:49:06.729Z,35.95
2023-01-18T19:51:57.940Z,34.92
2023-01-18T19:54:35.444Z,35.28
2023-01-18T19:57:18.256Z,54.55
2023-01-18T20:00:00.613Z,32.13
2023-01-18T20:05:34.393Z,41.55
2023-01-18T20:15:11.478Z,31.67
2023-01-18T20:21:39.319Z,34.93
2023-01-18T20:24:43.462Z,29.08
2023-01-18T20:27:53.623Z,42.72
2023-01-18T20:30:46.568Z,33.03
2023-01-18T20:37:00.898Z,34.33
2023-01-18T20:40:04.881Z,39.88
2023-01-18T20:42:37.641Z,41.97
2023-01-18T20:45:07.536Z,37.75
2023-01-18T20:47:34.775Z,33.42
2023-01-18T20:50:16.540Z,37.15
2023-01-18T20:52:55.933Z,34.83
2023-01-18T21:02:26.475Z,40.67
2023-01-18T21:05:04.223Z,29.90
2023-01-18T21:07:59.554Z,33.80
2023-01-18T21:10:38.855Z,41.85
2023-01-18T21:13:17.067Z,43.13
2023-01-18T21:16:28.884Z,34.67
2023-01-18T21:19:13.846Z,38.38
2023-01-18T21:22:10.256Z,34.92
2023-01-18T21:24:44.822Z,42.38
2023-01-18T21:27:18.681Z,35.97
2023-01-18T21:29:45.971Z,33.97
2023-01-18T21:32:25.800Z,45.63
2023-01-18T21:34:55.806Z,39.28
2023-01-18T21:37:30.892Z,40.30
2023-01-18T21:40:06.310Z,36.75
2023-01-18T21:43:02.202Z,42.75
2023-01-18T21:45:47.399Z,37.83
2023-01-18T21:48:14.257Z,40.65
2023-01-18T21:54:01.396Z,33.05
2023-01-18T21:56:31.279Z,45.97
2023-01-18T21:59:00.432Z,47.28
2023-01-18T22:01:38.655Z,41.75
2023-01-18T22:04:27.359Z,41.75
2023-01-18T22:06:54.218Z,41.03
2023-01-18T22:09:21.264Z,39.22
2023-01-18T22:11:48.266Z,40.67
2023-01-18T22:14:15.852Z,43.58
2023-01-18T22:16:42.501Z,38.10
2023-01-18T22:19:20.717Z,38.67
2023-01-18T22:21:49.982Z,44.53
2023-01-18T22:24:17.654Z,33.47
2023-01-18T22:26:45.440Z,40.60
2023-01-18T22:29:12.593Z,41.10
2023-01-18T22:31:39.567Z,37.45
2023-01-18T22:34:07.510Z,45.78
2023-01-18T22:36:34.361Z,39.42
2023-01-18T22:39:01.056Z,41.80
2023-01-18T22:41:29.042Z,35.25
2023-01-18T22:43:56.441Z,42.13
2023-01-18T22:46:23.964Z,39.92
2023-01-18T22:48:51.008Z,35.13
2023-01-18T22:51:20.057Z,34.20
2023-01-18T22:53:46.542Z,36.72
2023-01-18T22:58:40.521Z,46.63
2023-01-18T23:03:53.443Z,30.98
2023-01-18T23:06:20.786Z,36.35
2023-01-18T23:08:47.958Z,35.33
2023-01-18T23:11:17.918Z,41.63
2023-01-18T23:14:07.055Z,37.45
2023-01-18T23:16:52.135Z,30.15
2023-01-18T23:19:19.181Z,31.63
2023-01-18T23:21:45.990Z,34.35
2023-01-18T23:24:12.686Z,32.72
2023-01-18T23:26:39.378Z,40.53
2023-01-18T23:29:05.859Z,34.28
2023-01-18T23:33:58.662Z,33.47
2023-01-18T23:36:25.148Z,36.15
2023-01-18T23:41:55.556Z,41.13
2023-01-18T23:44:40.663Z,37.15
2023-01-18T23:47:25.564Z,43.53
2023-01-18T23:50:10.529Z,37.15
2023-01-18T23:52:55.327Z,29.25
2023-01-18T23:55:21.832Z,34.10
